Time;durP1;ratioP1;P1;durP2;ratioP2;P2;SDS_P1;SDS_P2;PMS_P1;PMS_P2;Temp;Humidity;BMP_temperature;BMP_pressure;BME280_temperature;BME280_humidity;BME280_pressure;Samples;Min_cycle;Max_cycle;Signal;HPM_P1;HPM_P2
2022/02/09 00:00:20;;;;;;;6.68;4.22;;;6.40;99.90;;;;;;5077375;28;20050;-89
2022/02/09 00:03:01;;;;;;;4.57;3.30;;;6.40;99.90;;;;;;5075111;28;20032;-89
2022/02/09 00:05:40;;;;;;;3.88;3.45;;;6.40;99.90;;;;;;5076758;28;20090;-89
2022/02/09 00:08:08;;;;;;;6.93;3.67;;;6.40;99.90;;;;;;5094422;28;20027;-90
2022/02/09 00:10:36;;;;;;;6.63;3.72;;;6.40;99.90;;;;;;5076389;28;20090;-90
2022/02/09 00:28:47;;;;;;;5.47;3.70;;;6.40;99.90;;;;;;5081045;28;20121;-89
2022/02/09 00:31:39;;;;;;;4.80;4.30;;;6.40;99.90;;;;;;5093972;28;20052;-89
2022/02/09 00:39:41;;;;;;;9.15;3.45;;;6.40;99.90;;;;;;5095383;28;20047;-90
2022/02/09 01:39:10;;;;;;;4.00;3.08;;;6.40;99.90;;;;;;5092457;28;20035;-89
2022/02/09 01:57:46;;;;;;;3.15;2.85;;;6.40;99.90;;;;;;5091847;28;20115;-89
2022/02/09 02:00:12;;;;;;;3.10;2.78;;;6.40;99.90;;;;;;5074313;28;20122;-89
2022/02/09 02:02:38;;;;;;;2.85;2.65;;;6.40;99.90;;;;;;5074070;28;20016;-89
2022/02/09 02:05:04;;;;;;;4.05;3.53;;;6.40;99.90;;;;;;5074265;28;20039;-90
2022/02/09 02:07:50;;;;;;;3.50;2.90;;;6.40;99.90;;;;;;5073153;28;20024;-89
2022/02/09 02:10:21;;;;;;;3.10;2.80;;;6.40;99.90;;;;;;5070713;28;20157;-89
2022/02/09 02:13:54;;;;;;;3.28;2.97;;;6.40;99.90;;;;;;5083795;28;20027;-89
2022/02/09 02:18:26;;;;;;;3.17;2.65;;;6.40;99.90;;;;;;5091026;28;20031;-90
2022/02/09 02:28:43;;;;;;;2.70;2.50;;;6.40;99.90;;;;;;5091419;28;20607;-89
2022/02/09 02:58:16;;;;;;;2.60;2.40;;;6.50;99.90;;;;;;5091732;28;20042;-89
2022/02/09 03:08:46;;;;;;;3.03;2.47;;;6.50;99.90;;;;;;5092097;28;20081;-89
2022/02/09 03:12:19;;;;;;;3.78;2.80;;;6.50;99.90;;;;;;5091281;28;20012;-89
2022/02/09 03:14:14;;;;;;;3.40;2.58;;;6.50;99.90;;;;;;5084925;28;20055;-90
2022/02/09 03:16:45;;;;;;;2.90;2.63;;;6.50;99.90;;;;;;5110360;28;20043;-88
2022/02/09 03:46:29;;;;;;;3.20;2.50;;;6.50;99.90;;;;;;5089238;28;20529;-89
2022/02/09 03:54:13;;;;;;;2.72;1.98;;;6.50;99.90;;;;;;5091723;28;20031;-89
2022/02/09 03:59:08;;;;;;;3.80;2.35;;;6.40;99.90;;;;;;5094463;28;20035;-88
2022/02/09 04:01:37;;;;;;;2.40;2.20;;;6.40;99.90;;;;;;5075469;28;20545;-88
2022/02/09 04:04:03;;;;;;;3.45;2.10;;;6.40;99.90;;;;;;5076314;28;20526;-88
2022/02/09 04:06:34;;;;;;;2.35;2.15;;;6.40;99.90;;;;;;5076791;28;20085;-89
2022/02/09 04:09:01;;;;;;;1.95;1.85;;;6.40;99.90;;;;;;5072550;28;20055;-88
2022/02/09 04:11:33;;;;;;;2.35;2.15;;;6.40;99.90;;;;;;5076557;28;20475;-89
2022/02/09 04:14:08;;;;;;;2.70;2.00;;;6.40;99.90;;;;;;5076495;28;20035;-89
2022/02/09 04:38:58;;;;;;;2.15;1.80;;;6.40;99.90;;;;;;5084235;28;20057;-90
2022/02/09 04:47:21;;;;;;;2.15;2.03;;;6.40;99.90;;;;;;5093973;28;20038;-89
2022/02/09 04:52:58;;;;;;;2.38;2.05;;;6.50;99.90;;;;;;5093925;28;20020;-89
2022/02/09 04:58:00;;;;;;;3.30;3.00;;;6.40;99.90;;;;;;5094758;28;20039;-89
2022/02/09 05:24:41;;;;;;;3.33;2.80;;;6.50;99.90;;;;;;5089822;28;20105;-67
2022/02/09 05:27:23;;;;;;;2.83;2.63;;;6.60;99.90;;;;;;5068961;28;20107;-69
2022/02/09 05:29:49;;;;;;;3.40;2.78;;;6.50;99.90;;;;;;5070525;28;20471;-68
2022/02/09 05:32:14;;;;;;;3.88;2.83;;;6.60;99.90;;;;;;5069996;28;20029;-68
2022/02/09 05:34:40;;;;;;;2.80;2.60;;;6.50;99.90;;;;;;5070496;28;20023;-69
2022/02/09 05:37:06;;;;;;;3.70;2.90;;;6.50;99.90;;;;;;5069550;28;20016;-69
2022/02/09 05:39:32;;;;;;;3.40;2.92;;;6.50;99.90;;;;;;5068175;28;20024;-71
2022/02/09 05:41:57;;;;;;;3.22;2.95;;;6.60;99.90;;;;;;5057777;28;20025;-69
2022/02/09 05:44:23;;;;;;;3.83;3.00;;;6.60;99.90;;;;;;5060329;28;20043;-68
2022/02/09 05:50:28;;;;;;;3.53;3.05;;;6.60;99.90;;;;;;5070519;28;20423;-68
2022/02/09 05:52:31;;;;;;;3.30;2.97;;;6.60;99.90;;;;;;5055608;28;20036;-68
2022/02/09 05:55:17;;;;;;;3.03;2.83;;;6.60;99.90;;;;;;5064563;28;20023;-69
2022/02/09 05:57:47;;;;;;;4.05;3.13;;;6.60;99.90;;;;;;5064287;28;20020;-70
2022/02/09 06:00:14;;;;;;;3.70;3.17;;;6.60;99.90;;;;;;5051781;28;20028;-69
2022/02/09 06:02:40;;;;;;;3.28;2.97;;;6.60;99.90;;;;;;5069023;28;20039;-68
2022/02/09 06:05:06;;;;;;;4.00;3.53;;;6.60;99.90;;;;;;5070848;28;20021;-67
2022/02/09 06:07:31;;;;;;;3.53;3.22;;;6.60;99.90;;;;;;5069104;28;20484;-69
2022/02/09 06:09:57;;;;;;;3.53;3.15;;;6.60;99.90;;;;;;5070689;28;20106;-69
2022/02/09 06:12:31;;;;;;;4.10;3.10;;;6.60;99.90;;;;;;5070042;28;20082;-71
2022/02/09 06:20:25;;;;;;;3.72;3.10;;;6.60;99.90;;;;;;5062924;28;20082;-71
2022/02/09 06:22:51;;;;;;;3.53;3.20;;;6.60;99.90;;;;;;5070510;28;20033;-72
2022/02/09 06:25:16;;;;;;;4.30;3.17;;;6.60;99.90;;;;;;5068280;28;20032;-68
2022/02/09 06:27:42;;;;;;;3.30;2.92;;;6.60;99.90;;;;;;5047429;28;20116;-68
2022/02/09 06:30:09;;;;;;;4.05;3.25;;;6.60;99.90;;;;;;5059704;28;20078;-68
2022/02/09 06:32:35;;;;;;;5.10;3.20;;;6.60;99.90;;;;;;5060607;28;20021;-68
2022/02/09 06:35:01;;;;;;;5.93;3.78;;;6.60;99.90;;;;;;5065720;28;20042;-68
2022/02/09 06:37:39;;;;;;;4.35;3.40;;;6.60;99.90;;;;;;5062313;28;20116;-68
2022/02/09 06:40:05;;;;;;;4.53;3.60;;;6.60;99.90;;;;;;5065996;28;20055;-67
2022/02/09 06:42:33;;;;;;;3.78;3.38;;;6.60;99.90;;;;;;5070056;28;20033;-68
2022/02/09 06:45:00;;;;;;;3.92;3.55;;;6.60;99.90;;;;;;5062472;28;20039;-68
2022/02/09 06:47:28;;;;;;;5.47;3.40;;;6.60;99.90;;;;;;5058932;28;20020;-68
2022/02/09 06:50:01;;;;;;;4.90;3.78;;;6.60;99.90;;;;;;5062914;28;20102;-70
2022/02/09 06:52:26;;;;;;;;;;;6.60;99.90;;;;;;5058637;28;20388;-68
2022/02/09 06:55:15;;;;;;;4.00;3.60;;;6.60;99.90;;;;;;5065186;28;19924;-72
2022/02/09 07:00:19;;;;;;;3.92;3.50;;;6.60;99.90;;;;;;5070042;28;20602;-69
2022/02/09 07:02:45;;;;;;;4.25;3.33;;;6.60;99.90;;;;;;5068444;28;20119;-68
2022/02/09 07:05:11;;;;;;;4.55;3.38;;;6.60;99.90;;;;;;5065743;28;20107;-68
2022/02/09 07:07:37;;;;;;;3.72;3.40;;;6.60;99.90;;;;;;5068673;28;20033;-68
2022/02/09 07:10:04;;;;;;;4.80;3.40;;;6.60;99.90;;;;;;5069414;28;20028;-68
2022/02/09 07:12:30;;;;;;;3.63;3.30;;;6.60;99.90;;;;;;5063859;28;20496;-71
2022/02/09 07:14:56;;;;;;;6.15;3.17;;;6.70;99.90;;;;;;5068052;28;20032;-69
2022/02/09 07:17:22;;;;;;;5.50;3.08;;;6.70;99.90;;;;;;5063987;28;20035;-68
2022/02/09 07:20:07;;;;;;;5.63;3.13;;;6.70;99.90;;;;;;5061474;28;20499;-68
2022/02/09 07:22:36;;;;;;;7.53;3.05;;;6.70;99.90;;;;;;5069354;28;20034;-70
2022/02/09 07:25:17;;;;;;;5.68;3.38;;;6.70;99.90;;;;;;5069317;28;20115;-68
2022/02/09 07:27:50;;;;;;;3.58;2.35;;;6.70;99.90;;;;;;5068711;28;20020;-69
2022/02/09 07:30:16;;;;;;;;;;;6.70;99.90;;;;;;5071437;28;20020;-68
2022/02/09 07:32:42;;;;;;;4.93;3.28;;;6.70;99.90;;;;;;5072527;28;19905;-69
2022/02/09 07:35:08;;;;;;;5.78;3.35;;;6.70;99.90;;;;;;5071685;28;20108;-68
2022/02/09 07:37:33;;;;;;;4.43;2.78;;;6.70;99.90;;;;;;5072914;28;20028;-68
2022/02/09 07:40:01;;;;;;;5.93;3.38;;;6.70;99.90;;;;;;5073161;28;20044;-69
2022/02/09 07:42:29;;;;;;;4.97;3.22;;;6.70;99.90;;;;;;5073726;28;20020;-68
2022/02/09 07:45:07;;;;;;;5.75;3.53;;;6.70;99.90;;;;;;5065314;28;20025;-67
2022/02/09 07:52:49;;;;;;;5.07;3.15;;;6.70;99.90;;;;;;5069013;28;20027;-69
2022/02/09 07:55:15;;;;;;;5.68;3.15;;;6.70;99.90;;;;;;5067460;28;20123;-68
2022/02/09 07:57:40;;;;;;;8.05;3.72;;;6.80;99.90;;;;;;5072022;28;20492;-68
2022/02/09 08:00:08;;;;;;;5.60;3.35;;;6.80;99.90;;;;;;5075487;28;20035;-69
2022/02/09 08:02:34;;;;;;;4.20;3.80;;;6.80;99.90;;;;;;5093400;28;20017;-69
2022/02/09 08:05:00;;;;;;;4.43;3.78;;;6.80;99.90;;;;;;5083536;28;20340;-68
2022/02/09 08:07:27;;;;;;;7.38;4.22;;;6.80;99.90;;;;;;5071986;28;20159;-68
2022/02/09 08:09:55;;;;;;;5.10;4.13;;;6.90;99.90;;;;;;5075661;28;20514;-69
2022/02/09 08:26:47;;;;;;;6.95;4.03;;;7.00;99.90;;;;;;5061656;28;20400;-68
2022/02/09 08:34:29;;;;;;;7.35;4.18;;;7.00;99.90;;;;;;5054676;28;20037;-68
2022/02/09 08:36:56;;;;;;;5.68;3.47;;;7.00;99.90;;;;;;5071918;28;20040;-72
2022/02/09 08:39:22;;;;;;;6.03;3.45;;;7.10;99.90;;;;;;5072038;28;20430;-67
2022/02/09 08:41:48;;;;;;;4.97;3.45;;;7.10;99.90;;;;;;5052384;28;20039;-67
2022/02/09 08:44:14;;;;;;;6.30;3.72;;;7.10;99.90;;;;;;5069603;28;20067;-70
2022/02/09 08:46:42;;;;;;;6.45;3.42;;;7.10;99.90;;;;;;5068052;28;20060;-69
2022/02/09 08:49:14;;;;;;;5.45;3.28;;;7.20;99.90;;;;;;5064566;28;20032;-68
2022/02/09 08:51:42;;;;;;;5.60;3.90;;;7.20;99.90;;;;;;5062210;28;20555;-68
2022/02/09 08:54:08;;;;;;;7.63;3.30;;;7.20;99.90;;;;;;5067080;28;20091;-68
2022/02/09 08:56:38;;;;;;;7.60;3.63;;;7.20;99.90;;;;;;5062810;28;20494;-68
2022/02/09 08:59:04;;;;;;;4.57;3.17;;;7.30;99.90;;;;;;5054433;28;20021;-69
2022/02/09 09:01:37;;;;;;;8.00;3.83;;;7.30;99.90;;;;;;5052638;28;20021;-68
2022/02/09 09:04:14;;;;;;;5.63;3.05;;;7.30;99.90;;;;;;5067520;28;20025;-71
2022/02/09 09:06:42;;;;;;;6.78;3.40;;;7.40;99.90;;;;;;5071930;28;20056;-68
2022/02/09 09:09:23;;;;;;;6.97;3.70;;;7.50;99.90;;;;;;5071099;28;20016;-68
2022/02/09 09:58:04;;;;;;;3.55;2.25;;;8.20;99.90;;;;;;5069077;28;20044;-69
2022/02/09 10:31:02;;;;;;;3.25;2.35;;;8.50;99.90;;;;;;5069826;28;20031;-70
2022/02/09 10:34:26;;;;;;;4.00;2.28;;;8.90;99.90;;;;;;5069824;28;20138;-69
2022/02/09 10:37:03;;;;;;;4.05;2.42;;;8.90;99.90;;;;;;5068328;28;20028;-70
2022/02/09 10:40:11;;;;;;;3.38;2.17;;;9.00;99.90;;;;;;5069991;28;20065;-66
2022/02/09 10:42:45;;;;;;;2.58;2.00;;;9.00;99.90;;;;;;5069091;28;20063;-65
2022/02/09 10:45:47;;;;;;;4.72;2.10;;;9.00;99.90;;;;;;5063674;28;20086;-66
2022/02/09 10:48:33;;;;;;;2.92;1.80;;;9.10;99.90;;;;;;5055607;28;20138;-66
2022/02/09 10:51:22;;;;;;;3.08;2.03;;;9.20;99.90;;;;;;5068092;28;20485;-66
2022/02/09 10:54:04;;;;;;;2.42;1.90;;;9.20;99.90;;;;;;5067162;28;20043;-70
2022/02/09 10:56:33;;;;;;;4.13;1.90;;;9.30;99.90;;;;;;5066006;28;20028;-70
2022/02/09 10:59:00;;;;;;;2.53;1.88;;;9.30;99.90;;;;;;5069578;28;20060;-69
2022/02/09 11:01:27;;;;;;;3.28;2.15;;;9.40;99.90;;;;;;5069558;28;20028;-69
2022/02/09 11:03:56;;;;;;;3.22;1.80;;;9.40;99.90;;;;;;5070223;28;20025;-69
2022/02/09 11:06:26;;;;;;;3.72;1.88;;;9.40;99.90;;;;;;5062623;28;20033;-69
2022/02/09 11:08:51;;;;;;;1.55;1.45;;;9.50;99.90;;;;;;5061834;28;20380;-69
2022/02/09 11:11:17;;;;;;;2.72;1.70;;;9.50;99.90;;;;;;5062928;28;20028;-69
2022/02/09 11:13:43;;;;;;;3.65;1.67;;;9.50;99.90;;;;;;5049494;28;20524;-70
2022/02/09 11:18:37;;;;;;;2.03;1.77;;;9.60;99.90;;;;;;5086848;28;20059;-70
2022/02/09 11:21:04;;;;;;;3.15;1.75;;;9.60;99.90;;;;;;5089059;28;20020;-70
2022/02/09 11:23:53;;;;;;;1.30;1.20;;;9.70;99.90;;;;;;5060352;28;20021;-70
2022/02/09 11:29:42;;;;;;;1.73;1.55;;;9.90;99.90;;;;;;5069528;28;20067;-70
2022/02/09 11:43:29;;;;;;;1.63;1.33;;;10.30;99.90;;;;;;5090255;28;20039;-71
2022/02/09 11:57:27;;;;;;;4.53;1.30;;;10.80;99.90;;;;;;5069101;28;20071;-69
2022/02/09 12:11:04;;;;;;;4.82;0.88;;;11.70;99.90;;;;;;5089547;28;20519;-70
2022/02/09 12:16:46;;;;;;;0.85;0.80;;;12.20;99.90;;;;;;5088756;28;20515;-70
2022/02/09 12:19:32;;;;;;;1.23;0.80;;;12.50;99.90;;;;;;5078134;28;20028;-70
2022/02/09 12:22:05;;;;;;;2.20;0.68;;;12.80;99.90;;;;;;5091686;28;20024;-70
2022/02/09 12:24:34;;;;;;;1.85;0.60;;;13.10;99.90;;;;;;5093561;28;20020;-71
2022/02/09 12:27:07;;;;;;;0.82;0.60;;;13.30;99.90;;;;;;5072377;28;20025;-69
2022/02/09 12:29:48;;;;;;;0.70;0.70;;;13.50;99.90;;;;;;5054444;28;20087;-70
2022/02/09 12:32:16;;;;;;;0.90;0.80;;;13.60;99.90;;;;;;5081265;28;20024;-69
2022/02/09 12:35:02;;;;;;;0.88;0.63;;;13.80;99.90;;;;;;5074765;28;20020;-71
2022/02/09 12:37:31;;;;;;;0.70;0.70;;;14.00;99.90;;;;;;5071850;28;20029;-69
2022/02/09 12:40:18;;;;;;;1.17;0.70;;;14.10;99.90;;;;;;5082162;28;20464;-69
2022/02/09 12:42:54;;;;;;;1.75;0.80;;;14.40;99.90;;;;;;5074799;28;20545;-70
2022/02/09 12:45:27;;;;;;;1.20;0.70;;;14.50;99.90;;;;;;5075986;28;20024;-70
2022/02/09 12:48:00;;;;;;;1.27;0.88;;;14.60;99.90;;;;;;5075967;28;20025;-69
2022/02/09 12:50:33;;;;;;;1.02;0.60;;;14.70;99.90;;;;;;5057690;28;20052;-70
2022/02/09 12:52:59;;;;;;;0.98;0.60;;;14.80;99.90;;;;;;5071828;28;20036;-69
2022/02/09 12:55:27;;;;;;;1.38;0.60;;;14.80;99.90;;;;;;5084089;28;20036;-69
2022/02/09 12:58:00;;;;;;;2.88;0.88;;;14.90;99.90;;;;;;5069331;28;20483;-69
2022/02/09 13:00:27;;;;;;;1.98;0.70;;;15.00;99.90;;;;;;5072784;28;20028;-69
2022/02/09 13:02:58;;;;;;;0.90;0.70;;;15.10;99.90;;;;;;5071756;28;20048;-69
2022/02/09 13:05:26;;;;;;;19.17;10.60;;;15.20;99.90;;;;;;5083755;28;20020;-70
2022/02/09 13:08:00;;;;;;;1.17;0.95;;;15.30;99.90;;;;;;5082372;28;20031;-69
2022/02/09 13:10:31;;;;;;;1.73;0.63;;;15.40;99.90;;;;;;5081602;28;20031;-69
2022/02/09 13:13:03;;;;;;;0.90;0.70;;;15.50;99.90;;;;;;5076933;28;20078;-68
2022/02/09 13:15:33;;;;;;;;;;;15.70;99.90;;;;;;5072897;28;20086;-70
2022/02/09 13:51:35;;;;;;;1.02;0.70;;;16.10;99.90;;;;;;5080088;28;20333;-68
2022/02/09 14:53:26;;;;;;;0.90;0.80;;;17.50;99.60;;;;;;5070521;28;20020;-66
2022/02/09 14:58:30;;;;;;;1.85;0.63;;;17.10;98.70;;;;;;5077431;28;20718;-67
2022/02/09 15:01:13;;;;;;;1.05;0.60;;;16.80;98.20;;;;;;5075505;28;20073;-66
2022/02/09 15:09:08;;;;;;;2.22;1.00;;;15.90;97.50;;;;;;5073337;28;20032;-67
2022/02/09 15:14:29;;;;;;;2.25;0.73;;;15.20;97.40;;;;;;5070155;28;20061;-67
2022/02/09 15:20:04;;;;;;;3.40;0.70;;;14.70;98.10;;;;;;5069057;28;20035;-68
2022/02/09 15:22:32;;;;;;;3.65;0.98;;;14.50;98.50;;;;;;5069792;28;20064;-67
2022/02/09 15:24:58;;;;;;;2.28;1.10;;;14.30;98.70;;;;;;5085144;28;20107;-66
2022/02/09 15:27:23;;;;;;;0.60;0.60;;;14.20;99.00;;;;;;5072857;28;20120;-68
2022/02/09 15:29:50;;;;;;;1.95;0.93;;;14.10;98.80;;;;;;5057131;28;20029;-66
2022/02/09 15:35:10;;;;;;;3.22;1.05;;;13.90;99.30;;;;;;5069638;28;20122;-66
2022/02/09 15:37:47;;;;;;;5.00;2.75;;;13.80;99.50;;;;;;5050605;28;20032;-66
2022/02/09 15:40:32;;;;;;;2.25;0.93;;;13.70;99.40;;;;;;5072104;28;20039;-66
2022/02/09 15:56:45;;;;;;;4.22;1.00;;;13.30;99.90;;;;;;5074467;28;20043;-66
2022/02/09 15:59:35;;;;;;;1.50;1.00;;;13.30;99.90;;;;;;5081843;28;20020;-66
2022/02/09 16:23:47;;;;;;;3.13;1.60;;;12.70;99.90;;;;;;5087867;28;20506;-66
2022/02/09 16:45:09;;;;;;;2.55;1.33;;;12.20;99.90;;;;;;5075571;28;20081;-67
2022/02/09 16:47:52;;;;;;;2.92;1.30;;;12.10;99.90;;;;;;5078384;28;20447;-69
2022/02/09 16:50:24;;;;;;;4.03;1.45;;;12.10;99.90;;;;;;5072617;28;20021;-69
2022/02/09 16:53:01;;;;;;;3.90;1.35;;;12.10;99.90;;;;;;5072476;28;20090;-68
2022/02/09 17:15:33;;;;;;;6.30;2.40;;;11.60;99.90;;;;;;5085919;28;20024;-68
2022/02/09 17:19:47;;;;;;;3.05;2.00;;;11.30;99.90;;;;;;5106964;28;20081;-67
2022/02/09 17:22:13;;;;;;;2.45;1.83;;;11.10;99.90;;;;;;5107621;28;20028;-67
2022/02/09 17:24:39;;;;;;;7.10;1.95;;;11.00;99.90;;;;;;5104486;28;20020;-67
2022/02/09 17:27:07;;;;;;;2.10;1.65;;;10.90;99.90;;;;;;5080426;28;20117;-67
2022/02/09 17:53:29;;;;;;;7.05;5.25;;;10.30;99.90;;;;;;5070387;28;20156;-69
2022/02/09 17:56:03;;;;;;;10.90;7.70;;;10.30;99.90;;;;;;5082129;28;20114;-69
2022/02/09 17:58:35;;;;;;;6.40;4.80;;;10.20;99.90;;;;;;5086654;28;20047;-69
2022/02/09 18:01:04;;;;;;;16.25;11.32;;;10.20;99.90;;;;;;5082848;28;20043;-68
2022/02/09 18:03:30;;;;;;;18.63;13.15;;;10.10;99.90;;;;;;5064595;28;20752;-69
2022/02/09 18:06:07;;;;;;;8.45;5.70;;;10.00;99.90;;;;;;5081880;28;20066;-70
2022/02/09 18:09:01;;;;;;;10.77;5.68;;;10.00;99.90;;;;;;5072775;28;20032;-69
2022/02/09 18:28:53;;;;;;;7.82;4.43;;;9.60;99.90;;;;;;5083814;28;20082;-69
2022/02/09 18:33:13;;;;;;;9.10;4.03;;;9.50;99.90;;;;;;5082351;28;20063;-70
2022/02/09 18:43:56;;;;;;;9.68;4.28;;;9.50;99.90;;;;;;5082743;28;20043;-69
2022/02/09 18:56:53;;;;;;;6.45;4.13;;;9.20;99.90;;;;;;5085419;28;20105;-70
2022/02/09 18:58:07;;;;;;;7.78;3.85;;;9.00;99.90;;;;;;5081981;28;20103;-70
2022/02/09 19:05:29;;;;;;;5.53;3.60;;;8.80;99.90;;;;;;5079118;28;20070;-70
2022/02/09 19:16:40;;;;;;;6.35;3.35;;;8.60;99.90;;;;;;5083955;28;20035;-70
2022/02/09 19:30:01;;;;;;;6.82;4.20;;;8.40;99.90;;;;;;5087610;28;20085;-68
2022/02/09 19:45:56;;;;;;;10.73;5.53;;;8.00;99.90;;;;;;5090690;28;20043;-69
2022/02/09 19:48:26;;;;;;;10.73;6.10;;;7.90;99.90;;;;;;5077972;28;20464;-70
2022/02/09 19:56:05;;;;;;;8.48;5.20;;;7.80;99.90;;;;;;5088225;28;20027;-70
2022/02/09 19:58:52;;;;;;;9.35;5.50;;;7.70;99.90;;;;;;5089238;28;20607;-69
2022/02/09 20:01:19;;;;;;;8.02;5.47;;;7.60;99.90;;;;;;5089264;28;20344;-70
2022/02/09 20:03:45;;;;;;;9.70;5.63;;;7.60;99.90;;;;;;5089718;28;20073;-69
2022/02/09 20:06:11;;;;;;;8.63;5.05;;;7.50;99.90;;;;;;5082353;28;20032;-68
2022/02/09 20:08:37;;;;;;;8.75;4.93;;;7.50;99.90;;;;;;5083405;28;20045;-70
2022/02/09 20:11:05;;;;;;;8.40;5.30;;;7.40;99.90;;;;;;5083405;28;20016;-69
2022/02/09 20:13:31;;;;;;;6.60;4.40;;;7.30;99.90;;;;;;5070544;28;20036;-70
2022/02/09 20:15:58;;;;;;;8.95;4.68;;;7.20;99.90;;;;;;5090280;28;20107;-69
2022/02/09 20:18:24;;;;;;;11.30;6.05;;;7.20;99.90;;;;;;5083708;28;20028;-69
2022/02/09 20:20:50;;;;;;;6.28;4.97;;;7.10;99.90;;;;;;5087832;28;20020;-69
2022/02/09 20:23:15;;;;;;;8.88;5.03;;;7.10;99.90;;;;;;5090417;28;20366;-67
2022/02/09 20:25:41;;;;;;;7.90;5.13;;;7.00;99.90;;;;;;5085276;28;20028;-70
2022/02/09 20:28:08;;;;;;;10.35;4.97;;;6.90;99.90;;;;;;5081772;28;20024;-70
2022/02/09 20:30:40;;;;;;;8.00;4.60;;;6.90;99.90;;;;;;5081135;28;20016;-69
2022/02/09 20:33:10;;;;;;;8.43;4.93;;;6.90;99.90;;;;;;5087772;28;20024;-70
2022/02/09 20:35:36;;;;;;;8.52;4.72;;;6.90;99.90;;;;;;5087749;28;20034;-68
2022/02/09 20:38:01;;;;;;;6.25;4.75;;;6.90;99.90;;;;;;5088170;28;20028;-70
2022/02/09 20:40:47;;;;;;;8.98;5.38;;;6.90;99.90;;;;;;5088375;28;20805;-69
2022/02/09 20:43:14;;;;;;;9.85;5.00;;;6.90;99.90;;;;;;5089210;28;20023;-70
2022/02/09 20:45:51;;;;;;;10.32;5.28;;;6.80;99.90;;;;;;5089469;28;20024;-70
2022/02/09 20:48:23;;;;;;;10.43;6.03;;;6.80;99.90;;;;;;5086828;28;20036;-69
2022/02/09 20:50:49;;;;;;;13.40;7.47;;;6.80;99.90;;;;;;5087140;28;20119;-67
2022/02/09 20:53:15;;;;;;;13.48;6.30;;;6.70;99.90;;;;;;5088815;28;20136;-69
2022/02/09 20:55:42;;;;;;;12.15;7.00;;;6.60;99.90;;;;;;5084597;28;20024;-68
2022/02/09 20:58:07;;;;;;;10.90;5.75;;;6.60;99.90;;;;;;5083875;28;20103;-70
2022/02/09 21:13:31;;;;;;;9.77;6.72;;;6.30;99.90;;;;;;5092237;28;20139;-70
2022/02/09 21:43:26;;;;;;;15.80;9.13;;;6.00;99.90;;;;;;5091850;28;20035;-69
2022/02/09 21:58:21;;;;;;;14.27;8.35;;;5.60;99.90;;;;;;5086174;28;20046;-70
2022/02/09 22:27:21;;;;;;;13.30;7.97;;;5.50;99.90;;;;;;5089067;28;20438;-67
2022/02/09 22:47:00;;;;;;;12.93;7.35;;;5.10;99.90;;;;;;5089523;28;20394;-70
2022/02/09 22:56:53;;;;;;;8.48;6.57;;;4.90;99.90;;;;;;5083305;28;20031;-70
2022/02/09 22:59:28;;;;;;;12.25;7.35;;;4.90;99.90;;;;;;5088245;28;20028;-70
2022/02/09 23:02:25;;;;;;;11.30;7.15;;;4.80;99.90;;;;;;5086774;28;20027;-70
2022/02/09 23:05:21;;;;;;;12.32;7.05;;;4.80;99.90;;;;;;5080737;28;20089;-69
2022/02/09 23:11:05;;;;;;;10.23;6.75;;;4.70;99.90;;;;;;5082004;28;20532;-68
2022/02/09 23:13:43;;;;;;;12.25;7.03;;;4.80;99.90;;;;;;5089626;28;20409;-70
